createdAt,value
2019-05-12T00:00:28.650Z,6.65
2019-05-12T00:05:32.611Z,6.95
2019-05-12T00:10:38.734Z,7.35
2019-05-12T00:15:43.562Z,6.60
2019-05-12T00:20:48.118Z,6.50
2019-05-12T00:25:52.597Z,7.35
2019-05-12T00:30:58.013Z,7.28
2019-05-12T00:36:02.802Z,7.40
2019-05-12T00:41:08.801Z,7.87
2019-05-12T00:46:13.536Z,7.55
2019-05-12T00:51:18.220Z,6.87
2019-05-12T00:56:23.917Z,7.55
2019-05-12T01:01:28.757Z,7.12
2019-05-12T01:06:33.300Z,6.97
2019-05-12T01:11:38.071Z,6.80
2019-05-12T01:16:42.619Z,7.75
2019-05-12T01:21:48.162Z,6.72
2019-05-12T01:26:52.830Z,6.80
2019-05-12T01:31:59.683Z,6.45
2019-05-12T01:37:22.021Z,6.22
2019-05-12T01:42:28.728Z,7.03
2019-05-12T01:47:34.419Z,5.90
2019-05-12T01:52:39.070Z,6.95
2019-05-12T01:57:44.757Z,5.62
2019-05-12T02:02:49.396Z,5.92
2019-05-12T02:07:58.104Z,6.30
2019-05-12T02:13:01.822Z,6.28
2019-05-12T02:18:08.799Z,5.40
2019-05-12T02:23:12.717Z,4.85
2019-05-12T02:28:18.017Z,5.20
2019-05-12T02:33:24.434Z,5.00
2019-05-12T02:38:28.997Z,4.92
2019-05-12T02:43:34.785Z,4.83
2019-05-12T02:48:39.574Z,5.22
2019-05-12T02:53:46.914Z,5.25
2019-05-12T02:58:50.724Z,5.45
2019-05-12T03:03:58.708Z,5.67
2019-05-12T03:09:06.594Z,5.55
2019-05-12T03:14:11.261Z,4.55
2019-05-12T03:19:15.811Z,5.22
2019-05-12T03:24:20.366Z,4.87
2019-05-12T03:29:25.284Z,4.55
2019-05-12T03:34:30.166Z,5.40
2019-05-12T03:39:34.888Z,6.00
2019-05-12T03:44:39.422Z,6.10
2019-05-12T03:49:45.506Z,5.47
2019-05-12T03:54:50.096Z,4.40
2019-05-12T03:59:54.726Z,3.85
2019-05-12T04:04:59.404Z,3.83
2019-05-12T04:10:05.684Z,4.85
2019-05-12T04:15:11.234Z,4.92
2019-05-12T04:20:15.783Z,4.80
2019-05-12T04:25:20.284Z,5.12
2019-05-12T04:30:25.262Z,5.50
2019-05-12T04:35:29.834Z,4.50
2019-05-12T04:40:36.056Z,4.85
2019-05-12T04:45:41.158Z,5.47
2019-05-12T04:50:45.637Z,4.25
2019-05-12T04:56:09.707Z,4.85
2019-05-12T05:00:59.512Z,5.17
2019-05-12T05:06:05.304Z,4.97
2019-05-12T05:11:09.869Z,5.10
2019-05-12T05:16:14.626Z,5.83
2019-05-12T05:21:19.175Z,5.80
2019-05-12T05:26:27.902Z,5.10
2019-05-12T05:31:29.839Z,5.40
2019-05-12T05:36:36.118Z,5.47
2019-05-12T05:41:46.430Z,5.50
2019-05-12T05:46:50.153Z,5.58
2019-05-12T05:51:57.594Z,5.75
2019-05-12T05:57:02.996Z,5.05
2019-05-12T06:02:07.693Z,4.58
2019-05-12T06:07:14.397Z,4.30
2019-05-12T06:12:18.681Z,4.67
2019-05-12T06:17:23.633Z,4.72
2019-05-12T06:22:28.272Z,4.72
2019-05-12T06:27:35.726Z,4.25
2019-05-12T06:32:50.496Z,4.10
2019-05-12T06:37:59.969Z,4.15
2019-05-12T06:42:59.534Z,4.12
2019-05-12T06:48:04.183Z,3.72
2019-05-12T06:53:08.688Z,5.15
2019-05-12T06:58:13.984Z,4.28
2019-05-12T07:03:19.438Z,5.83
2019-05-12T07:08:30.474Z,5.62
2019-05-12T07:13:31.095Z,5.28
2019-05-12T07:18:37.056Z,4.95
2019-05-12T07:23:44.350Z,4.50
2019-05-12T07:28:48.465Z,4.00
2019-05-12T07:33:54.243Z,3.50
2019-05-12T07:39:04.163Z,2.83
2019-05-12T07:44:06.603Z,2.55
2019-05-12T07:49:11.103Z,2.65
2019-05-12T07:54:15.799Z,2.50
2019-05-12T07:59:20.739Z,2.10
2019-05-12T08:04:25.310Z,2.25
2019-05-12T08:09:32.401Z,2.90
2019-05-12T08:14:36.109Z,2.50
2019-05-12T08:19:40.785Z,2.27
2019-05-12T08:24:48.176Z,2.00
2019-05-12T08:30:01.174Z,2.80
2019-05-12T08:34:59.034Z,4.42
2019-05-12T08:40:07.710Z,3.22
2019-05-12T08:45:15.162Z,3.02
2019-05-12T08:50:23.200Z,2.45
2019-05-12T08:55:31.564Z,2.60
2019-05-12T09:05:45.524Z,3.35
2019-05-12T09:10:52.191Z,2.40
2019-05-12T09:15:56.495Z,2.95
2019-05-12T09:21:03.586Z,2.12
2019-05-12T09:26:07.277Z,1.85
2019-05-12T09:31:13.988Z,2.30
2019-05-12T09:36:21.762Z,2.10
2019-05-12T09:41:26.973Z,1.95
2019-05-12T09:46:34.341Z,1.98
2019-05-12T09:51:42.705Z,2.10
2019-05-12T09:56:44.337Z,1.80
2019-05-12T10:01:48.962Z,2.20
2019-05-12T10:06:53.584Z,2.50
2019-05-12T10:12:00.727Z,1.98
2019-05-12T10:17:05.557Z,2.60
2019-05-12T10:22:11.410Z,3.00
2019-05-12T10:27:21.112Z,2.30
2019-05-12T10:32:24.021Z,2.05
2019-05-12T10:37:29.524Z,1.95
2019-05-12T10:42:34.182Z,2.15
2019-05-12T10:47:38.732Z,2.10
2019-05-12T10:52:44.770Z,1.98
2019-05-12T10:57:52.989Z,2.70
2019-05-12T11:03:01.450Z,2.00
2019-05-12T11:08:11.118Z,2.00
2019-05-12T11:13:10.125Z,2.00
2019-05-12T11:18:14.909Z,1.75
2019-05-12T11:23:19.431Z,2.50
2019-05-12T11:28:24.418Z,2.02
2019-05-12T11:33:30.192Z,2.12
2019-05-12T11:38:34.742Z,1.57
2019-05-12T11:43:39.248Z,1.57
2019-05-12T11:48:46.411Z,1.40
2019-05-12T11:53:50.119Z,1.45
2019-05-12T11:58:54.674Z,1.52
2019-05-12T12:03:59.257Z,1.60
2019-05-12T12:09:09.309Z,2.22
2019-05-12T12:14:14.261Z,1.50
2019-05-12T12:19:18.480Z,1.80
2019-05-12T12:24:30.018Z,2.95
2019-05-12T12:29:29.249Z,2.40
2019-05-12T12:34:35.306Z,2.70
2019-05-12T12:39:39.847Z,2.37
2019-05-12T12:44:45.201Z,3.22
2019-05-12T12:49:49.685Z,2.10
2019-05-12T12:54:59.236Z,2.77
2019-05-12T13:00:03.664Z,2.40
2019-05-12T13:05:07.901Z,2.30
2019-05-12T13:10:14.294Z,2.20
2019-05-12T13:15:21.069Z,2.45
2019-05-12T13:20:26.314Z,2.47
2019-05-12T13:25:30.954Z,2.42
2019-05-12T13:30:45.843Z,3.00
2019-05-12T13:35:43.502Z,3.20
2019-05-12T13:40:48.241Z,4.25
2019-05-12T13:45:53.442Z,2.90
2019-05-12T13:51:07.519Z,2.40
2019-05-12T13:56:04.967Z,2.20
2019-05-12T14:01:17.020Z,2.58
2019-05-12T14:06:15.925Z,2.65
2019-05-12T14:11:20.435Z,2.30
2019-05-12T14:16:24.981Z,2.47
2019-05-12T14:21:33.149Z,3.12
2019-05-12T14:26:39.524Z,2.85
2019-05-12T14:31:45.249Z,2.98
2019-05-12T14:36:48.530Z,3.72
2019-05-12T14:41:54.628Z,2.80
2019-05-12T14:46:59.227Z,2.60
2019-05-12T14:52:03.924Z,2.30
2019-05-12T14:57:08.957Z,2.72
2019-05-12T15:02:13.689Z,3.33
2019-05-12T15:07:18.290Z,2.90
2019-05-12T15:12:24.285Z,2.80
2019-05-12T15:17:29.011Z,3.27
2019-05-12T15:22:33.591Z,3.75
2019-05-12T15:27:45.001Z,3.67
2019-05-12T15:32:44.510Z,3.20
2019-05-12T15:37:51.941Z,3.47
2019-05-12T15:43:00.273Z,4.47
2019-05-12T15:48:03.876Z,3.30
2019-05-12T15:53:07.831Z,3.50
2019-05-12T15:58:14.098Z,3.65
2019-05-12T16:03:18.988Z,3.52
2019-05-12T16:08:24.485Z,4.00
2019-05-12T16:13:29.212Z,5.55
2019-05-12T16:18:40.523Z,4.00
2019-05-12T16:23:44.735Z,4.03
2019-05-12T16:28:54.003Z,4.75
2019-05-12T16:34:01.215Z,5.37
2019-05-12T16:39:04.256Z,6.72
2019-05-12T16:44:17.295Z,5.30
2019-05-12T16:49:25.129Z,4.83
2019-05-12T16:54:25.871Z,4.78
2019-05-12T16:59:30.413Z,4.80
2019-05-12T17:04:35.043Z,4.33
2019-05-12T17:09:39.732Z,4.90
2019-05-12T17:14:49.903Z,4.42
2019-05-12T17:19:53.896Z,4.87
2019-05-12T17:24:58.020Z,4.60
2019-05-12T17:30:04.475Z,4.22
2019-05-12T17:35:10.458Z,4.20
2019-05-12T17:40:19.910Z,4.37
2019-05-12T17:45:23.563Z,5.00
2019-05-12T17:50:29.140Z,4.62
2019-05-12T17:55:42.598Z,4.67
2019-05-12T18:00:49.980Z,4.90
2019-05-12T18:05:49.887Z,5.20
2019-05-12T18:10:54.700Z,6.95
2019-05-12T18:15:59.341Z,4.80
2019-05-12T18:21:03.997Z,4.20
2019-05-12T18:26:11.480Z,3.55
2019-05-12T18:31:14.922Z,3.45
2019-05-12T18:36:19.803Z,4.12
2019-05-12T18:41:24.786Z,4.08
2019-05-12T18:46:29.302Z,6.30
2019-05-12T18:51:34.358Z,4.87
2019-05-12T18:56:39.134Z,4.28
2019-05-12T19:01:43.874Z,4.35
2019-05-12T19:06:48.890Z,4.47
2019-05-12T19:11:53.750Z,6.80
2019-05-12T19:16:58.422Z,4.53
2019-05-12T19:22:09.077Z,4.53
2019-05-12T19:27:10.390Z,3.42
2019-05-12T19:32:16.141Z,3.60
2019-05-12T19:37:26.477Z,3.87
2019-05-12T19:42:27.257Z,3.77
2019-05-12T19:47:36.451Z,3.50
2019-05-12T19:52:38.243Z,3.72
2019-05-12T19:57:44.258Z,3.72
2019-05-12T20:02:49.186Z,4.65
2019-05-12T20:07:53.884Z,4.75
2019-05-12T20:12:58.864Z,3.58
2019-05-12T20:18:04.239Z,3.67
2019-05-12T20:23:09.215Z,3.75
2019-05-12T20:28:19.822Z,3.70
2019-05-12T20:33:24.432Z,3.62
2019-05-12T20:38:33.945Z,3.80
2019-05-12T20:43:38.145Z,3.72
2019-05-12T20:48:41.554Z,3.80
2019-05-12T20:53:47.189Z,4.83
2019-05-12T20:58:51.744Z,3.27
2019-05-12T21:03:56.298Z,3.92
2019-05-12T21:09:00.865Z,3.45
2019-05-12T21:14:09.951Z,3.72
2019-05-12T21:19:14.250Z,3.58
2019-05-12T21:24:18.405Z,3.77
2019-05-12T21:29:25.696Z,3.72
2019-05-12T21:34:29.538Z,3.17
2019-05-12T21:39:34.159Z,3.00
2019-05-12T21:44:41.309Z,2.80
2019-05-12T21:49:48.551Z,3.12
2019-05-12T21:54:55.417Z,2.90
2019-05-12T21:59:59.204Z,2.70
2019-05-12T22:05:04.285Z,2.80
2019-05-12T22:10:09.278Z,2.85
2019-05-12T22:15:24.538Z,3.10
2019-05-12T22:20:32.363Z,3.02
2019-05-12T22:25:37.105Z,2.90
2019-05-12T22:30:43.827Z,2.90
2019-05-12T22:36:01.874Z,2.75
2019-05-12T22:40:57.896Z,2.67
2019-05-12T22:46:00.710Z,3.22
2019-05-12T22:51:14.435Z,3.77
2019-05-12T22:56:13.424Z,2.90
2019-05-12T23:01:18.023Z,2.83
2019-05-12T23:06:24.974Z,3.30
2019-05-12T23:11:37.553Z,3.83
2019-05-12T23:16:35.686Z,3.60
2019-05-12T23:21:40.204Z,3.90
2019-05-12T23:26:47.793Z,3.95
2019-05-12T23:31:51.017Z,3.25
2019-05-12T23:36:59.731Z,3.60
2019-05-12T23:42:04.195Z,3.35
2019-05-12T23:47:08.118Z,3.50
2019-05-12T23:52:14.019Z,3.75
2019-05-12T23:57:18.732Z,3.83
